Time;durP1;ratioP1;P1;durP2;ratioP2;P2;SDS_P1;SDS_P2;PMS_P1;PMS_P2;Temp;Humidity;BMP_temperature;BMP_pressure;BME280_temperature;BME280_humidity;BME280_pressure;Samples;Min_cycle;Max_cycle;Signal;HPM_P1;HPM_P2
2023/08/09 00:02:25;;;;;;;2.83;1.73;;;;;;;17.22;90.82;97962.44;5074469;28;20201;-77
2023/08/09 00:04:51;;;;;;;1.70;1.60;;;;;;;17.26;90.32;97963.53;5074457;28;20204;-77
2023/08/09 00:07:18;;;;;;;1.70;1.60;;;;;;;17.22;91.28;97965.13;5074486;28;20201;-77
2023/08/09 00:09:44;;;;;;;2.07;1.40;;;;;;;17.20;90.55;97961.88;5074400;28;20246;-77
2023/08/09 00:12:11;;;;;;;1.97;1.50;;;;;;;17.20;91.78;97959.19;5074291;28;20239;-77
2023/08/09 00:14:37;;;;;;;1.67;1.40;;;;;;;17.15;94.50;97953.81;5074060;28;20672;-77
2023/08/09 00:17:03;;;;;;;3.13;1.80;;;;;;;17.09;94.80;97954.88;5074321;28;20206;-77
2023/08/09 00:19:30;;;;;;;2.13;1.60;;;;;;;17.02;96.34;97959.69;5074220;28;20224;-78
2023/08/09 00:21:56;;;;;;;1.87;1.67;;;;;;;16.97;95.97;97956.16;5074316;28;20223;-77
2023/08/09 00:24:23;;;;;;;1.67;1.50;;;;;;;16.96;95.10;97952.66;5074214;28;20575;-77
2023/08/09 00:26:50;;;;;;;3.50;1.60;;;;;;;16.96;95.57;97951.88;5073479;28;20578;-77
2023/08/09 00:29:16;;;;;;;2.80;1.27;;;;;;;16.96;96.71;97955.34;5074048;28;20224;-78
2023/08/09 00:31:43;;;;;;;2.00;1.63;;;;;;;16.88;97.78;97961.22;5073669;28;20695;-78
2023/08/09 00:34:10;;;;;;;3.23;1.67;;;;;;;16.85;100.00;97958.25;5074105;28;20231;-77
2023/08/09 00:36:37;;;;;;;1.77;1.40;;;;;;;16.85;100.00;97953.69;5073963;28;20211;-77
2023/08/09 00:39:05;;;;;;;1.97;1.40;;;;;;;16.81;100.00;97939.19;5073875;28;20224;-77
2023/08/09 00:41:32;;;;;;;1.70;1.50;;;;;;;16.79;100.00;97943.97;5073931;28;20255;-78
2023/08/09 00:43:59;;;;;;;2.70;1.47;;;;;;;16.79;100.00;97945.88;5073890;28;20209;-77
2023/08/09 00:46:25;;;;;;;2.90;1.70;;;;;;;16.76;100.00;97943.69;5073574;28;20201;-77
2023/08/09 00:48:52;;;;;;;1.97;1.60;;;;;;;16.77;100.00;97938.06;5073803;28;20224;-77
2023/08/09 00:51:19;;;;;;;1.70;1.60;;;;;;;16.74;100.00;97938.59;5073776;28;20243;-78
2023/08/09 00:53:47;;;;;;;1.87;1.60;;;;;;;16.75;100.00;97940.22;5073766;28;20242;-77
2023/08/09 00:56:14;;;;;;;1.77;1.50;;;;;;;16.73;100.00;97936.97;5073775;28;20201;-77
2023/08/09 00:58:40;;;;;;;1.77;1.60;;;;;;;16.79;100.00;97940.50;5073651;28;20220;-77
2023/08/09 01:01:07;;;;;;;2.93;1.60;;;;;;;16.69;100.00;97932.41;5073717;28;20197;-77
2023/08/09 01:03:34;;;;;;;4.90;1.57;;;;;;;16.69;100.00;97935.88;5073362;28;20211;-77
2023/08/09 01:06:07;;;;;;;3.83;1.70;;;;;;;16.72;100.00;97935.38;5073667;28;20204;-77
2023/08/09 01:08:59;;;;;;;3.53;1.50;;;;;;;16.66;100.00;97939.09;5073833;28;20225;-77
2023/08/09 01:11:36;;;;;;;1.77;1.60;;;;;;;16.63;100.00;97941.47;5073094;28;20220;-77
2023/08/09 01:14:06;;;;;;;2.00;1.60;;;;;;;16.57;100.00;97931.78;5072431;28;20189;-77
2023/08/09 01:16:37;;;;;;;2.97;1.90;;;;;;;16.56;100.00;97924.81;5073233;28;20337;-77
2023/08/09 01:19:10;;;;;;;2.20;2.00;;;;;;;16.49;100.00;97932.28;5070726;28;20220;-77
2023/08/09 01:21:39;;;;;;;2.27;1.37;;;;;;;16.50;100.00;97921.28;5052383;28;20189;-77
2023/08/09 01:24:08;;;;;;;1.93;1.47;;;;;;;16.52;100.00;97924.50;5053848;28;20213;-77
2023/08/09 01:26:34;;;;;;;2.80;1.60;;;;;;;16.47;100.00;97924.47;5053268;28;20265;-77
2023/08/09 01:29:01;;;;;;;2.83;1.60;;;;;;;16.41;100.00;97924.69;5053169;28;20686;-77
2023/08/09 01:31:27;;;;;;;2.20;1.63;;;;;;;16.38;100.00;97923.31;5053312;28;20581;-77
2023/08/09 01:33:53;;;;;;;1.80;1.70;;;;;;;16.31;100.00;97909.34;5052921;28;20205;-77
2023/08/09 01:36:24;;;;;;;2.20;1.77;;;;;;;16.31;100.00;97917.38;5053148;28;20205;-77
2023/08/09 01:39:12;;;;;;;2.57;1.50;;;;;;;16.26;100.00;97914.66;5054674;28;20233;-77
2023/08/09 01:41:39;;;;;;;2.20;1.70;;;;;;;16.19;100.00;97919.44;5057348;28;20225;-77
2023/08/09 01:44:07;;;;;;;2.93;1.63;;;;;;;16.15;100.00;97923.69;5057226;28;20281;-77
2023/08/09 01:46:34;;;;;;;4.27;1.70;;;;;;;16.13;100.00;97919.66;5057220;28;20608;-77
2023/08/09 01:49:15;;;;;;;3.57;1.60;;;;;;;16.17;100.00;97931.50;5057098;28;20595;-77
2023/08/09 01:51:42;;;;;;;2.83;1.90;;;;;;;16.08;100.00;97922.31;5057039;28;20213;-76
2023/08/09 01:54:11;;;;;;;2.00;1.80;;;;;;;16.09;100.00;97927.41;5057063;28;20205;-76
2023/08/09 01:56:38;;;;;;;3.13;1.90;;;;;;;16.05;100.00;97928.19;5056993;28;20231;-76
2023/08/09 01:59:05;;;;;;;2.10;1.60;;;;;;;15.95;100.00;97934.28;5056888;28;20229;-76
2023/08/09 02:01:32;;;;;;;3.37;1.73;;;;;;;15.93;100.00;97936.38;5056888;28;20296;-76
2023/08/09 02:03:59;;;;;;;3.17;2.20;;;;;;;15.85;100.00;97947.59;5056863;28;20208;-76
2023/08/09 02:06:25;;;;;;;1.93;1.77;;;;;;;15.86;100.00;97949.22;5056491;28;20208;-76
2023/08/09 02:08:51;;;;;;;3.07;2.00;;;;;;;15.80;100.00;97952.09;5056713;28;20283;-76
2023/08/09 02:11:18;;;;;;;2.10;1.90;;;;;;;15.70;100.00;97949.31;5056348;28;20714;-76
2023/08/09 02:13:44;;;;;;;1.70;1.60;;;;;;;15.78;100.00;97955.03;5056427;28;20669;-76
2023/08/09 02:16:10;;;;;;;1.80;1.70;;;;;;;15.81;100.00;97962.56;5056715;28;20209;-76
2023/08/09 02:18:37;;;;;;;5.23;1.80;;;;;;;15.82;100.00;97956.13;5056556;28;20229;-76
2023/08/09 02:21:05;;;;;;;1.80;1.70;;;;;;;15.80;100.00;97960.13;5056100;28;20208;-75
2023/08/09 02:23:31;;;;;;;2.23;1.97;;;;;;;15.78;100.00;97951.56;5056459;28;20205;-75
2023/08/09 02:25:58;;;;;;;4.27;1.93;;;;;;;15.84;100.00;97959.38;5056121;28;20241;-75
2023/08/09 02:28:24;;;;;;;3.30;1.90;;;;;;;15.88;100.00;97960.47;5055957;28;20237;-75
2023/08/09 02:30:53;;;;;;;2.50;1.77;;;;;;;15.86;100.00;97961.78;5055998;28;20209;-75
2023/08/09 02:33:19;;;;;;;2.83;1.83;;;;;;;15.88;100.00;97949.75;5056288;28;20211;-75
2023/08/09 02:35:57;;;;;;;1.73;1.63;;;;;;;15.88;100.00;97955.13;5056192;28;20211;-75
2023/08/09 02:38:25;;;;;;;1.70;1.50;;;;;;;15.86;100.00;97954.56;5056141;28;20229;-75
2023/08/09 02:40:53;;;;;;;1.70;1.60;;;;;;;15.95;100.00;97961.09;5056060;28;20208;-75
2023/08/09 02:43:20;;;;;;;4.03;1.83;;;;;;;15.96;100.00;97962.69;5055771;28;20251;-74
2023/08/09 02:45:48;;;;;;;1.70;1.60;;;;;;;15.85;100.00;97955.63;5055731;28;20231;-74
2023/08/09 02:48:14;;;;;;;2.53;1.80;;;;;;;15.86;100.00;97951.06;5055635;28;20211;-74
2023/08/09 02:50:41;;;;;;;2.60;1.70;;;;;;;15.93;100.00;97959.72;5055772;28;20201;-74
2023/08/09 02:53:08;;;;;;;2.13;1.70;;;;;;;15.84;100.00;97954.00;5056272;28;20232;-76
2023/08/09 02:55:35;;;;;;;2.67;1.60;;;;;;;15.93;100.00;97963.19;5055764;28;20228;-76
2023/08/09 02:58:03;;;;;;;1.93;1.77;;;;;;;16.07;100.00;97958.22;5055528;28;20668;-76
2023/08/09 03:00:30;;;;;;;2.63;1.70;;;;;;;16.07;100.00;97959.06;5055801;28;20235;-76
2023/08/09 03:02:57;;;;;;;2.37;1.67;;;;;;;15.99;100.00;97959.50;5055404;28;20686;-76
2023/08/09 03:05:24;;;;;;;3.03;1.60;;;;;;;16.00;100.00;97960.31;5055730;28;20201;-76
2023/08/09 03:07:51;;;;;;;1.77;1.57;;;;;;;15.99;100.00;97959.50;5055737;28;20205;-76
2023/08/09 03:10:18;;;;;;;3.37;2.00;;;;;;;15.95;100.00;97952.22;5055554;28;20663;-76
2023/08/09 03:12:44;;;;;;;2.30;1.60;;;;;;;15.93;100.00;97955.16;5055518;28;20229;-76
2023/08/09 03:15:11;;;;;;;2.47;1.83;;;;;;;15.87;100.00;97961.53;5055266;28;20611;-76
2023/08/09 03:17:38;;;;;;;1.70;1.53;;;;;;;15.90;100.00;97958.38;5055185;28;20553;-76
2023/08/09 03:20:09;;;;;;;2.50;1.80;;;;;;;15.84;100.00;97948.63;5055314;28;20232;-76
2023/08/09 03:22:36;;;;;;;1.67;1.50;;;;;;;15.89;100.00;97945.22;5068817;28;20199;-80
2023/08/09 03:25:02;;;;;;;2.63;1.50;;;;;;;15.85;100.00;97952.97;5076688;28;20204;-81
2023/08/09 03:27:29;;;;;;;3.47;1.43;;;;;;;15.89;100.00;97946.03;5076471;28;20225;-81
2023/08/09 03:29:55;;;;;;;1.97;1.43;;;;;;;15.90;100.00;97950.31;5077527;28;20243;-80
2023/08/09 03:32:21;;;;;;;1.60;1.50;;;;;;;15.91;100.00;97949.25;5064979;28;20221;-78
2023/08/09 03:34:48;;;;;;;1.70;1.60;;;;;;;15.91;100.00;97953.78;5070842;28;20656;-78
2023/08/09 03:37:14;;;;;;;4.60;2.00;;;;;;;15.87;100.00;97952.72;5075219;28;20209;-78
2023/08/09 03:39:41;;;;;;;3.33;1.70;;;;;;;15.86;100.00;97949.22;5075124;28;20365;-78
2023/08/09 03:42:07;;;;;;;1.50;1.40;;;;;;;15.92;100.00;97942.81;5075937;28;20566;-81
2023/08/09 03:44:34;;;;;;;2.00;1.60;;;;;;;15.92;100.00;97942.03;5077200;28;20201;-81
2023/08/09 03:47:00;;;;;;;1.80;1.70;;;;;;;15.90;100.00;97947.63;5077302;28;20197;-81
2023/08/09 03:49:27;;;;;;;3.00;1.60;;;;;;;15.93;100.00;97954.38;5065344;28;20217;-81
2023/08/09 03:51:53;;;;;;;1.63;1.53;;;;;;;15.93;100.00;97952.47;5057436;28;20227;-81
2023/08/09 03:54:20;;;;;;;2.73;1.70;;;;;;;15.96;100.00;97957.34;5057931;28;20209;-81
2023/08/09 03:56:46;;;;;;;3.40;1.53;;;;;;;15.99;100.00;97962.19;5057724;28;20258;-81
2023/08/09 03:59:13;;;;;;;2.00;1.80;;;;;;;15.93;100.00;97954.38;5067487;28;20586;-81
2023/08/09 04:01:39;;;;;;;2.00;1.50;;;;;;;15.96;100.00;97965.38;5065267;28;20198;-81
2023/08/09 04:04:05;;;;;;;1.60;1.50;;;;;;;15.96;100.00;97965.38;5057358;28;20263;-81
2023/08/09 04:06:32;;;;;;;4.53;1.83;;;;;;;15.93;100.00;97963.19;5058109;28;20299;-81
2023/08/09 04:08:58;;;;;;;1.70;1.60;;;;;;;15.92;100.00;97966.16;5058203;28;20248;-81
2023/08/09 04:11:24;;;;;;;2.07;1.50;;;;;;;16.02;100.00;97960.88;5060132;28;20205;-81
2023/08/09 04:13:51;;;;;;;1.87;1.50;;;;;;;15.99;100.00;97959.50;5057233;28;20589;-81
2023/08/09 04:16:18;;;;;;;2.73;1.47;;;;;;;15.96;100.00;97962.69;5057746;28;20205;-81
2023/08/09 04:18:44;;;;;;;2.50;1.60;;;;;;;16.02;100.00;97961.66;5058677;28;20261;-81
2023/08/09 04:21:10;;;;;;;3.70;1.70;;;;;;;16.09;100.00;97948.88;5060062;28;20197;-81
2023/08/09 04:23:37;;;;;;;2.77;1.40;;;;;;;16.13;100.00;97947.28;5058942;28;20205;-81
2023/08/09 04:26:03;;;;;;;2.00;1.50;;;;;;;16.11;100.00;97948.63;5066975;28;20219;-81
2023/08/09 04:28:30;;;;;;;2.03;1.30;;;;;;;16.20;100.00;97945.19;5076897;28;20610;-78
2023/08/09 04:30:57;;;;;;;2.47;1.47;;;;;;;16.20;100.00;97939.81;5078373;28;20208;-79
2023/08/09 04:33:23;;;;;;;2.07;1.53;;;;;;;16.21;100.00;97940.63;5057915;28;20303;-78
2023/08/09 04:35:50;;;;;;;1.90;1.40;;;;;;;16.39;100.00;97946.41;5065354;28;20194;-78
2023/08/09 04:38:16;;;;;;;1.73;1.47;;;;;;;16.40;100.00;97937.31;5066099;28;20250;-79
2023/08/09 04:40:43;;;;;;;1.60;1.50;;;;;;;16.45;100.00;97940.03;5059189;28;20215;-79
2023/08/09 04:43:09;;;;;;;2.60;1.50;;;;;;;16.51;100.00;97947.03;5059301;28;20308;-78
2023/08/09 04:45:36;;;;;;;2.33;1.40;;;;;;;16.49;100.00;97949.19;5061439;28;20227;-81
2023/08/09 04:48:07;;;;;;;3.00;1.57;;;;;;;16.52;100.00;97951.34;5068745;28;20209;-81
2023/08/09 04:50:33;;;;;;;1.30;1.20;;;;;;;16.62;100.00;97956.78;5059559;28;20311;-81
2023/08/09 04:53:00;;;;;;;1.33;1.23;;;;;;;16.58;100.00;97944.97;5059202;28;20252;-80
2023/08/09 04:55:26;;;;;;;2.87;1.77;;;;;;;16.62;100.00;97939.88;5057954;28;20209;-80
2023/08/09 04:57:53;;;;;;;2.00;1.60;;;;;;;16.60;100.00;97945.50;5059046;28;20232;-81
2023/08/09 05:00:19;;;;;;;1.77;1.60;;;;;;;16.58;100.00;97947.63;5058071;28;20233;-78
2023/08/09 05:02:45;;;;;;;4.63;1.50;;;;;;;16.61;100.00;97949.00;5057423;28;20235;-78
2023/08/09 05:05:12;;;;;;;3.60;1.70;;;;;;;16.66;100.00;97949.84;5057995;28;20296;-79
2023/08/09 05:07:39;;;;;;;2.53;1.50;;;;;;;16.68;100.00;97952.25;5060320;28;20209;-79
2023/08/09 05:10:07;;;;;;;1.70;1.60;;;;;;;16.68;100.00;97950.38;5059373;28;20263;-78
2023/08/09 05:12:33;;;;;;;3.23;1.63;;;;;;;16.63;100.00;97938.78;5058937;28;20228;-78
2023/08/09 05:15:00;;;;;;;2.63;1.53;;;;;;;16.76;100.00;97949.06;5054212;28;20205;-75
2023/08/09 05:17:26;;;;;;;2.07;1.60;;;;;;;16.67;100.00;97948.75;5053122;28;20240;-75
2023/08/09 05:19:53;;;;;;;1.47;1.30;;;;;;;16.66;100.00;97940.97;5053192;28;20229;-74
2023/08/09 05:22:19;;;;;;;1.93;1.60;;;;;;;16.66;100.00;97949.84;5053369;28;20231;-74
2023/08/09 05:24:45;;;;;;;2.67;1.73;;;;;;;16.71;100.00;97932.94;5053047;28;20579;-74
2023/08/09 05:27:12;;;;;;;1.60;1.50;;;;;;;16.71;100.00;97938.31;5052851;28;20209;-74
2023/08/09 05:29:38;;;;;;;3.70;1.60;;;;;;;16.71;100.00;97933.75;5052883;28;20712;-74
2023/08/09 05:32:05;;;;;;;2.93;1.47;;;;;;;16.81;100.00;97941.03;5052644;28;20700;-75
2023/08/09 05:34:31;;;;;;;3.93;1.80;;;;;;;16.91;100.00;97933.03;5052996;28;20204;-74
2023/08/09 05:36:58;;;;;;;2.10;1.83;;;;;;;16.90;100.00;97942.97;5053009;28;20209;-75
2023/08/09 05:39:24;;;;;;;3.10;1.60;;;;;;;16.99;100.00;97933.34;5052909;28;20308;-75
2023/08/09 05:41:50;;;;;;;1.60;1.50;;;;;;;16.99;100.00;97936.03;5053064;28;20212;-74
2023/08/09 05:44:17;;;;;;;3.00;1.40;;;;;;;17.02;100.00;97948.94;5053192;28;20205;-74
2023/08/09 05:46:43;;;;;;;2.70;1.57;;;;;;;17.11;100.00;97944.69;5052998;28;20205;-75
2023/08/09 05:49:10;;;;;;;3.50;1.60;;;;;;;17.06;100.00;97939.28;5052698;28;20225;-75
2023/08/09 05:51:36;;;;;;;2.40;1.40;;;;;;;17.13;100.00;97937.16;5052847;28;20205;-75
2023/08/09 05:54:03;;;;;;;4.07;1.70;;;;;;;17.01;100.00;97939.25;5052906;28;20236;-76
2023/08/09 05:56:30;;;;;;;1.43;1.33;;;;;;;17.00;100.00;97937.66;5052878;28;20205;-75
2023/08/09 05:58:56;;;;;;;3.03;1.60;;;;;;;17.07;100.00;97943.59;5052642;28;20221;-75
2023/08/09 06:01:22;;;;;;;1.50;1.40;;;;;;;17.15;100.00;97947.66;5052466;28;20688;-75
2023/08/09 06:03:49;;;;;;;2.93;1.60;;;;;;;17.14;100.00;97951.41;5052681;28;20201;-75
2023/08/09 06:06:15;;;;;;;2.50;1.57;;;;;;;17.07;100.00;97943.59;5052476;28;20212;-75
2023/08/09 06:08:42;;;;;;;1.87;1.60;;;;;;;17.07;100.00;97953.53;5052577;28;20565;-75
2023/08/09 06:11:08;;;;;;;4.20;1.40;;;;;;;17.10;100.00;97955.69;5052346;28;20205;-75
2023/08/09 06:13:35;;;;;;;4.33;1.80;;;;;;;17.19;100.00;97962.97;5052540;28;20217;-75
2023/08/09 06:16:02;;;;;;;1.90;1.63;;;;;;;17.23;100.00;97960.59;5052507;28;20205;-76
2023/08/09 06:18:28;;;;;;;1.73;1.30;;;;;;;17.30;100.00;97959.25;5052322;28;20232;-75
2023/08/09 06:20:55;;;;;;;4.00;1.57;;;;;;;17.33;100.00;97957.94;5052730;28;20205;-75
2023/08/09 06:23:22;;;;;;;2.53;1.60;;;;;;;17.38;100.00;97964.09;5052557;28;20228;-75
2023/08/09 06:25:50;;;;;;;1.40;1.30;;;;;;;17.46;100.00;97962.84;5055036;28;20231;-75
2023/08/09 06:28:18;;;;;;;2.03;1.50;;;;;;;17.46;100.00;97963.63;5055590;28;20716;-75
2023/08/09 06:30:44;;;;;;;4.57;1.40;;;;;;;17.53;100.00;97969.56;5055752;28;20699;-75
2023/08/09 06:33:11;;;;;;;1.73;1.30;;;;;;;17.66;100.00;97971.75;5055842;28;20221;-75
2023/08/09 06:35:38;;;;;;;2.53;1.57;;;;;;;17.73;100.00;97974.97;5055652;28;20205;-75
2023/08/09 06:38:04;;;;;;;3.03;1.47;;;;;;;17.77;100.00;97976.06;5056181;28;20207;-76
2023/08/09 06:40:31;;;;;;;2.67;1.40;;;;;;;17.79;98.04;97976.63;5055382;28;20205;-76
2023/08/09 06:42:57;;;;;;;2.17;1.60;;;;;;;17.88;98.73;97980.41;5054569;28;20229;-76
2023/08/09 06:45:23;;;;;;;2.63;1.50;;;;;;;17.94;98.87;97982.03;5053283;28;20681;-76
2023/08/09 06:47:50;;;;;;;1.57;1.30;;;;;;;17.94;96.51;97979.34;5053713;28;20545;-76
2023/08/09 06:50:16;;;;;;;2.97;1.40;;;;;;;18.02;95.93;97983.38;5053669;28;20225;-76
2023/08/09 06:52:42;;;;;;;2.53;1.77;;;;;;;18.12;95.57;97978.00;5053379;28;20236;-76
2023/08/09 06:55:10;;;;;;;2.53;1.60;;;;;;;18.07;97.83;97978.81;5053466;28;20207;-76
2023/08/09 06:57:36;;;;;;;1.50;1.40;;;;;;;18.12;97.22;97978.00;5053522;28;20698;-76
2023/08/09 07:00:15;;;;;;;2.87;1.33;;;;;;;18.22;93.98;97981.50;5054787;28;20229;-76
2023/08/09 07:02:42;;;;;;;2.70;1.17;;;;;;;18.27;95.20;97984.19;5055814;28;20217;-76
2023/08/09 07:05:14;;;;;;;2.67;1.57;;;;;;;18.28;96.03;97998.47;5055478;28;20212;-76
2023/08/09 07:07:43;;;;;;;3.90;1.40;;;;;;;18.33;95.52;97998.47;5055489;28;20194;-76
2023/08/09 07:10:09;;;;;;;4.47;1.40;;;;;;;18.29;93.27;98011.66;5055397;28;20232;-76
2023/08/09 07:12:36;;;;;;;2.37;1.30;;;;;;;18.31;93.94;98014.03;5055383;28;20312;-76
2023/08/09 07:15:07;;;;;;;1.97;1.40;;;;;;;18.28;96.15;98012.69;5055129;28;20205;-76
2023/08/09 07:17:33;;;;;;;1.70;1.60;;;;;;;18.31;96.25;98014.03;5055261;28;20281;-76
2023/08/09 07:19:59;;;;;;;1.77;1.53;;;;;;;18.32;95.14;98013.00;5054641;28;20232;-76
2023/08/09 07:22:26;;;;;;;1.67;1.43;;;;;;;18.38;93.38;98015.44;5054833;28;20695;-76
2023/08/09 07:24:52;;;;;;;1.87;1.60;;;;;;;18.46;97.97;98022.19;5054743;28;20567;-76
2023/08/09 07:27:18;;;;;;;2.47;1.50;;;;;;;18.49;94.87;98025.13;5054788;28;20315;-76
2023/08/09 07:29:45;;;;;;;3.37;1.80;;;;;;;18.58;94.65;98020.00;5054943;28;20225;-76
2023/08/09 07:32:11;;;;;;;1.57;1.43;;;;;;;18.60;96.91;98021.34;5054965;28;20209;-76
2023/08/09 07:34:38;;;;;;;1.70;1.30;;;;;;;18.59;95.56;98029.72;5054700;28;20225;-76
2023/08/09 07:37:05;;;;;;;4.63;1.40;;;;;;;18.69;91.60;98032.38;5053690;28;20566;-76
2023/08/09 07:39:31;;;;;;;3.60;1.47;;;;;;;18.72;93.14;98031.81;5054374;28;20221;-76
2023/08/09 07:41:58;;;;;;;4.17;1.70;;;;;;;18.69;92.39;98035.09;5054424;28;20205;-76
2023/08/09 07:44:24;;;;;;;4.67;1.30;;;;;;;18.78;95.98;98031.56;5054541;28;20207;-76
2023/08/09 07:46:51;;;;;;;3.80;1.93;;;;;;;18.85;96.53;98025.88;5054438;28;20201;-76
2023/08/09 07:49:17;;;;;;;2.33;1.50;;;;;;;18.83;92.28;98036.13;5054388;28;20264;-76
2023/08/09 07:51:43;;;;;;;3.30;1.57;;;;;;;18.88;91.94;98038.81;5055140;28;20544;-76
2023/08/09 07:54:11;;;;;;;2.13;1.50;;;;;;;18.87;92.47;98038.00;5054315;28;20317;-76
2023/08/09 07:56:37;;;;;;;4.57;1.60;;;;;;;18.87;90.11;98042.59;5054049;28;20209;-75
2023/08/09 07:59:04;;;;;;;3.00;1.70;;;;;;;18.99;90.06;98043.91;5054032;28;20225;-76
2023/08/09 08:01:31;;;;;;;4.23;1.53;;;;;;;19.02;92.42;98046.09;5053973;28;20205;-76
2023/08/09 08:03:58;;;;;;;4.07;1.67;;;;;;;19.05;89.79;98052.81;5054253;28;20208;-76
2023/08/09 08:06:24;;;;;;;2.70;1.70;;;;;;;19.07;93.77;98048.75;5053922;28;20205;-76
2023/08/09 08:08:51;;;;;;;3.23;1.90;;;;;;;19.12;88.59;98061.41;5054024;28;20225;-76
2023/08/09 08:11:17;;;;;;;2.23;1.40;;;;;;;19.19;90.23;98065.41;5054381;28;20201;-76
2023/08/09 08:13:44;;;;;;;1.87;1.53;;;;;;;19.07;90.55;98064.94;5054177;28;20231;-75
2023/08/09 08:16:10;;;;;;;2.77;1.53;;;;;;;19.09;90.94;98060.06;5054627;28;20687;-75
2023/08/09 08:18:37;;;;;;;4.83;1.77;;;;;;;18.97;89.78;98070.34;5054355;28;20712;-75
2023/08/09 08:21:04;;;;;;;2.47;1.40;;;;;;;19.05;90.58;98067.06;5054615;28;20205;-75
2023/08/09 08:23:32;;;;;;;2.40;1.23;;;;;;;18.95;90.54;98072.47;5054555;28;20205;-75
2023/08/09 08:25:58;;;;;;;6.40;1.60;;;;;;;18.84;91.24;98073.59;5054175;28;20304;-75
2023/08/09 08:28:25;;;;;;;1.77;1.50;;;;;;;18.84;94.26;98072.78;5053956;28;20337;-75
2023/08/09 08:30:51;;;;;;;5.03;1.57;;;;;;;18.74;91.53;98089.72;5053875;28;20275;-75
2023/08/09 08:33:18;;;;;;;1.47;1.30;;;;;;;18.77;92.89;98088.41;5054221;28;20225;-75
2023/08/09 08:35:48;;;;;;;1.57;1.40;;;;;;;18.73;95.02;98096.19;5055523;28;20201;-75
2023/08/09 08:38:17;;;;;;;1.57;1.47;;;;;;;18.75;96.23;98085.97;5053907;28;20216;-75
2023/08/09 08:40:44;;;;;;;2.50;1.50;;;;;;;18.68;93.34;98090.81;5054243;28;20202;-75
2023/08/09 08:43:10;;;;;;;2.50;1.43;;;;;;;18.79;91.81;98087.06;5053731;28;20203;-76
2023/08/09 08:45:39;;;;;;;1.83;1.50;;;;;;;18.79;91.81;98092.44;5053703;28;20212;-75
2023/08/09 08:48:09;;;;;;;3.40;1.87;;;;;;;18.84;91.51;98094.31;5053133;28;20205;-76
2023/08/09 08:50:41;;;;;;;2.70;1.57;;;;;;;18.86;94.94;98102.94;5053827;28;20209;-76
2023/08/09 08:53:08;;;;;;;2.93;1.50;;;;;;;18.83;93.09;98108.88;5054762;28;20236;-76
2023/08/09 08:55:35;;;;;;;3.40;1.60;;;;;;;18.90;92.54;98106.69;5058808;28;20213;-76
2023/08/09 08:58:01;;;;;;;2.60;1.53;;;;;;;18.87;93.18;98109.94;5058319;28;20213;-76
2023/08/09 09:00:28;;;;;;;2.10;1.90;;;;;;;18.89;97.63;98097.81;5061405;28;20284;-76
2023/08/09 09:02:55;;;;;;;3.23;1.67;;;;;;;18.85;96.03;98095.94;5058202;28;20244;-76
2023/08/09 09:05:23;;;;;;;5.40;2.10;;;;;;;18.94;97.57;98097.00;5059767;28;20763;-76
2023/08/09 09:07:50;;;;;;;2.70;1.57;;;;;;;19.08;100.00;98089.97;5060043;28;20205;-76
2023/08/09 09:10:18;;;;;;;3.37;1.63;;;;;;;19.27;94.66;98104.53;5059298;28;20221;-76
2023/08/09 09:12:45;;;;;;;4.83;1.60;;;;;;;19.26;94.50;98101.03;5059736;28;20254;-76
2023/08/09 09:15:14;;;;;;;2.83;1.80;;;;;;;19.34;96.92;98097.78;5059603;28;20231;-76
2023/08/09 09:17:42;;;;;;;2.07;1.43;;;;;;;19.38;96.63;98100.72;5057496;28;20205;-76
2023/08/09 09:20:15;;;;;;;2.30;1.63;;;;;;;19.48;91.30;98102.59;5056867;28;20225;-76
2023/08/09 09:22:42;;;;;;;3.00;1.50;;;;;;;19.46;91.21;98103.66;5057009;28;20221;-76
2023/08/09 09:25:10;;;;;;;2.93;1.50;;;;;;;19.62;91.29;98109.03;5053414;28;20590;-76
2023/08/09 09:27:39;;;;;;;1.73;1.53;;;;;;;19.47;89.24;98109.88;5052628;28;20254;-75
2023/08/09 09:30:12;;;;;;;2.73;1.70;;;;;;;19.57;91.81;98106.34;5053003;28;20225;-76
2023/08/09 09:32:40;;;;;;;2.47;1.67;;;;;;;19.60;95.11;98110.09;5053114;28;20193;-76
2023/08/09 09:35:08;;;;;;;3.67;1.90;;;;;;;19.69;94.79;98102.25;5053004;28;20336;-76
2023/08/09 09:37:36;;;;;;;3.13;1.70;;;;;;;19.72;93.59;98106.28;5052913;28;20292;-76
2023/08/09 09:40:03;;;;;;;5.50;1.87;;;;;;;19.55;93.21;98112.00;5052693;28;20228;-76
2023/08/09 09:42:35;;;;;;;3.17;1.97;;;;;;;19.48;92.81;98108.78;5052611;28;20665;-76
2023/08/09 09:45:07;;;;;;;4.67;1.87;;;;;;;19.64;92.21;98113.84;5052945;28;20259;-76
2023/08/09 09:47:39;;;;;;;3.00;1.70;;;;;;;19.73;92.27;98118.69;5052970;28;20213;-76
2023/08/09 09:50:10;;;;;;;5.20;2.07;;;;;;;19.58;90.15;98120.34;5052998;28;20243;-76
2023/08/09 09:52:36;;;;;;;1.97;1.77;;;;;;;19.64;91.66;98126.56;5053087;28;20260;-76
2023/08/09 09:55:05;;;;;;;2.30;1.83;;;;;;;19.73;92.73;98123.00;5052822;28;20225;-76
2023/08/09 09:57:33;;;;;;;4.77;1.87;;;;;;;19.79;89.33;98126.47;5052396;28;20304;-76
2023/08/09 10:00:04;;;;;;;5.17;1.93;;;;;;;19.96;89.63;98118.03;5054168;28;20229;-76
2023/08/09 10:02:45;;;;;;;3.60;1.60;;;;;;;20.06;90.88;98113.41;5056758;28;20655;-76
2023/08/09 10:05:13;;;;;;;4.00;1.70;;;;;;;19.94;88.38;98112.13;5056523;28;20185;-76
2023/08/09 10:07:43;;;;;;;2.93;1.70;;;;;;;20.23;88.50;98121.19;5056590;28;20211;-76
2023/08/09 10:10:10;;;;;;;3.27;1.50;;;;;;;20.22;88.48;98123.09;5056005;28;20712;-76
2023/08/09 10:12:37;;;;;;;3.57;2.10;;;;;;;20.12;90.30;98123.13;5056292;28;20213;-76
2023/08/09 10:15:06;;;;;;;3.40;1.73;;;;;;;19.93;90.47;98124.00;5055007;28;20221;-76
2023/08/09 10:17:34;;;;;;;3.60;1.73;;;;;;;19.84;89.92;98120.28;5056063;28;20205;-76
2023/08/09 10:20:03;;;;;;;3.30;1.70;;;;;;;19.75;90.15;98119.22;5056137;28;20221;-76
2023/08/09 10:22:30;;;;;;;2.27;1.50;;;;;;;19.54;91.28;98124.69;5056197;28;20298;-76
2023/08/09 10:24:59;;;;;;;3.97;1.70;;;;;;;19.78;92.06;98122.97;5055867;28;20539;-76
2023/08/09 10:27:49;;;;;;;2.33;1.60;;;;;;;19.67;92.82;98130.59;5055724;28;20699;-76
2023/08/09 10:30:16;;;;;;;3.67;1.80;;;;;;;19.54;94.59;98123.88;5055959;28;20225;-76
2023/08/09 10:32:48;;;;;;;4.10;1.83;;;;;;;19.35;94.30;98133.63;5056104;28;20300;-76
2023/08/09 10:35:20;;;;;;;4.37;1.90;;;;;;;19.14;95.11;98132.03;5055766;28;20205;-75
2023/08/09 10:37:47;;;;;;;5.30;1.87;;;;;;;19.28;97.42;98128.50;5056080;28;20205;-76
2023/08/09 10:40:16;;;;;;;3.33;1.80;;;;;;;19.15;97.94;98130.94;5056071;28;20224;-76
2023/08/09 10:42:45;;;;;;;3.27;1.90;;;;;;;19.35;98.02;98129.03;5056618;28;20255;-76
2023/08/09 10:45:12;;;;;;;4.10;2.20;;;;;;;19.52;95.74;98137.63;5055523;28;20266;-76
2023/08/09 10:47:40;;;;;;;3.60;1.77;;;;;;;19.58;94.33;98133.03;5056141;28;20702;-75
2023/08/09 10:50:08;;;;;;;2.80;1.63;;;;;;;19.77;93.80;98131.38;5055568;28;20232;-76
2023/08/09 10:52:41;;;;;;;2.80;1.70;;;;;;;19.80;93.25;98133.50;5054964;28;20557;-76
2023/08/09 10:55:19;;;;;;;2.23;1.70;;;;;;;19.88;93.30;98132.09;5055362;28;20263;-76
2023/08/09 10:57:48;;;;;;;1.70;1.60;;;;;;;20.05;95.55;98127.19;5055435;28;20212;-76
2023/08/09 11:00:16;;;;;;;4.27;1.60;;;;;;;19.83;92.40;98132.13;5055408;28;20692;-76
2023/08/09 11:02:56;;;;;;;3.53;2.03;;;;;;;19.67;93.79;98142.97;5055090;28;20267;-76
2023/08/09 11:05:24;;;;;;;3.23;1.70;;;;;;;19.63;96.33;98138.44;5055428;28;20637;-76
2023/08/09 11:07:53;;;;;;;1.80;1.70;;;;;;;19.48;95.51;98132.25;5055596;28;20296;-76
2023/08/09 11:10:33;;;;;;;3.97;1.63;;;;;;;19.45;99.91;98136.31;5054692;28;20245;-76
2023/08/09 11:13:08;;;;;;;3.10;1.80;;;;;;;19.53;97.73;98147.34;5054946;28;20663;-76
2023/08/09 11:15:36;;;;;;;2.33;1.70;;;;;;;19.61;97.44;98137.88;5054889;28;20680;-76
2023/08/09 11:18:02;;;;;;;4.13;1.70;;;;;;;19.87;98.31;98139.41;5054816;28;20201;-76
2023/08/09 11:20:29;;;;;;;3.23;1.73;;;;;;;19.93;96.40;98132.91;5054722;28;20208;-76
2023/08/09 11:22:58;;;;;;;3.03;1.67;;;;;;;20.07;95.77;98131.22;5054899;28;20205;-76
2023/08/09 11:25:26;;;;;;;5.13;1.97;;;;;;;20.10;95.11;98133.41;5054936;28;20197;-76
2023/08/09 11:27:54;;;;;;;3.63;2.10;;;;;;;19.98;93.67;98132.88;5054314;28;20588;-76
2023/08/09 11:30:22;;;;;;;3.73;1.30;;;;;;;20.08;97.46;98124.75;5054546;28;20308;-76
2023/08/09 11:33:05;;;;;;;2.97;1.70;;;;;;;20.12;93.10;98125.81;5054837;28;20625;-76